Time;durP1;ratioP1;P1;durP2;ratioP2;P2;SDS_P1;SDS_P2;PMS_P1;PMS_P2;Temp;Humidity;BMP_temperature;BMP_pressure;BME280_temperature;BME280_humidity;BME280_pressure;Samples;Min_cycle;Max_cycle;Signal;HPM_P1;HPM_P2
2023/07/05 00:00:48;;;;;;;2.45;1.62;;;;;;;20.68;65.61;98645.78;7189227;40;20824;31
2023/07/05 00:06:09;;;;;;;2.25;1.77;;;;;;;20.67;64.98;98674.25;7176211;40;20243;31
2023/07/05 00:11:45;;;;;;;2.60;1.85;;;;;;;20.51;67.18;98705.16;7254680;40;20333;31
2023/07/05 00:17:06;;;;;;;7.33;2.30;;;;;;;20.36;68.11;98655.56;7270525;40;20797;31
2023/07/05 00:22:41;;;;;;;3.55;1.50;;;;;;;20.32;68.33;98654.34;7288464;40;20381;31
2023/07/05 00:28:18;;;;;;;3.80;1.60;;;;;;;20.31;69.44;98636.31;7248485;40;20895;31
2023/07/05 00:33:40;;;;;;;2.70;1.80;;;;;;;20.13;70.04;98635.38;7237735;40;20260;31
2023/07/05 00:39:00;;;;;;;2.70;1.70;;;;;;;20.08;69.96;98620.75;7277062;40;20583;31
2023/07/05 00:44:36;;;;;;;2.50;1.70;;;;;;;20.15;69.71;98607.75;7089747;40;21392;31
2023/07/05 00:50:11;;;;;;;2.55;1.65;;;;;;;20.29;68.28;98591.87;7217951;39;20862;31
2023/07/05 00:55:46;;;;;;;4.37;2.00;;;;;;;20.35;68.89;98605.47;7205110;40;22026;31
2023/07/05 01:01:23;;;;;;;2.00;1.80;;;;;;;20.39;68.55;98600.31;7206346;40;20238;31
2023/07/05 01:06:59;;;;;;;2.90;1.50;;;;;;;20.48;69.62;98604.34;7187160;40;20253;31
2023/07/05 01:12:31;;;;;;;3.90;1.87;;;;;;;20.51;70.34;98604.66;7209753;40;20744;31
2023/07/05 01:18:09;;;;;;;3.63;2.00;;;;;;;20.45;70.00;98616.59;7223936;40;20350;31
2023/07/05 01:24:15;;;;;;;5.00;2.30;;;;;;;20.42;70.92;98617.09;7192290;40;21018;31
2023/07/05 01:30:05;;;;;;;2.93;1.57;;;;;;;20.39;71.36;98623.06;7191763;40;20668;31
2023/07/05 01:35:42;;;;;;;2.50;1.60;;;;;;;20.32;70.43;98627.81;7198542;40;20246;31
2023/07/05 01:41:19;;;;;;;3.30;1.90;;;;;;;20.43;70.91;98621.50;7198892;40;20793;31
2023/07/05 01:46:55;;;;;;;2.60;1.80;;;;;;;20.49;70.23;98606.81;7189432;40;20355;31
2023/07/05 01:52:32;;;;;;;3.37;1.90;;;;;;;20.53;70.33;98608.00;7201153;40;20851;31
2023/07/05 02:03:16;;;;;;;2.10;1.80;;;;;;;20.34;72.65;98619.38;7258698;39;20288;31
2023/07/05 02:08:53;;;;;;;3.30;1.90;;;;;;;20.27;73.39;98630.44;7289791;40;20818;31
2023/07/05 02:14:15;;;;;;;2.60;2.17;;;;;;;20.26;72.46;98628.78;7297818;40;20249;31
2023/07/05 02:19:47;;;;;;;3.13;1.80;;;;;;;20.25;72.76;98611.53;7237162;40;20382;31
2023/07/05 02:25:25;;;;;;;2.80;2.10;;;;;;;20.08;73.98;98610.62;7247325;40;20245;31
2023/07/05 02:30:46;;;;;;;4.35;2.25;;;;;;;19.93;75.82;98603.97;7214629;40;20254;31
2023/07/05 02:36:22;;;;;;;3.23;2.10;;;;;;;19.90;76.12;98593.53;7228916;40;20354;31
2023/07/05 02:41:59;;;;;;;4.17;2.30;;;;;;;19.83;77.36;98587.38;7206147;40;21419;31
2023/07/05 02:47:20;;;;;;;3.85;2.30;;;;;;;19.86;76.83;98579.50;7203080;40;20243;31
2023/07/05 02:52:40;;;;;;;3.50;2.60;;;;;;;19.82;77.28;98588.44;7258518;40;20537;31
2023/07/05 02:58:17;;;;;;;2.90;2.30;;;;;;;19.74;77.44;98582.28;7259221;40;20250;31
2023/07/05 03:03:53;;;;;;;5.47;2.70;;;;;;;19.78;77.28;98566.22;7257365;40;20245;31
2023/07/05 03:09:29;;;;;;;6.57;2.50;;;;;;;19.85;76.96;98571.53;7226220;40;20253;31
2023/07/05 03:15:05;;;;;;;4.03;2.43;;;;;;;19.85;78.26;98582.47;7219919;40;20343;31
2023/07/05 03:20:27;;;;;;;2.10;1.70;;;;;;;19.80;76.80;98577.72;7222783;40;20242;31
2023/07/05 03:26:08;;;;;;;2.30;1.70;;;;;;;19.78;75.19;98556.12;7182818;40;20494;31
2023/07/05 03:31:45;;;;;;;2.70;1.90;;;;;;;19.85;73.85;98569.63;7148886;40;20287;31
2023/07/05 03:37:20;;;;;;;2.60;1.75;;;;;;;19.88;74.44;98576.56;7196047;40;20360;31
2023/07/05 03:42:55;;;;;;;2.60;1.95;;;;;;;19.85;74.42;98571.53;7188389;40;20243;31
2023/07/05 03:48:30;;;;;;;2.00;1.80;;;;;;;19.88;74.44;98582.03;7167232;40;20257;31
2023/07/05 03:54:08;;;;;;;4.90;2.40;;;;;;;19.92;75.04;98583.19;7189294;40;20431;31
2023/07/05 03:59:28;;;;;;;4.75;2.30;;;;;;;19.82;76.33;98578.34;7211250;40;20335;31
2023/07/05 04:05:05;;;;;;;4.40;2.53;;;;;;;19.78;76.47;98569.78;7230321;40;20249;31
2023/07/05 04:10:25;;;;;;;3.30;2.40;;;;;;;19.77;77.04;98581.78;7233046;40;21477;31
2023/07/05 04:15:45;;;;;;;10.50;3.10;;;;;;;19.73;77.93;98586.09;7237273;40;20261;31
2023/07/05 04:21:24;;;;;;;5.53;2.77;;;;;;;19.77;78.19;98595.47;7289242;40;20267;31
2023/07/05 04:26:59;;;;;;;3.40;2.30;;;;;;;19.78;77.98;98599.88;7245860;40;20260;31
2023/07/05 04:32:19;;;;;;;4.80;2.70;;;;;;;19.64;79.53;98603.94;7256684;40;20245;31
2023/07/05 04:37:55;;;;;;;7.80;2.97;;;;;;;19.54;81.04;98606.44;7248823;40;20273;31
2023/07/05 04:43:30;;;;;;;5.63;2.73;;;;;;;19.52;80.78;98600.38;7253012;40;20286;31
2023/07/05 04:48:50;;;;;;;4.70;2.60;;;;;;;19.46;80.96;98595.84;7243963;40;20249;31
2023/07/05 04:54:36;;;;;;;;;;;;;;;;;;;;;
2023/07/05 04:59:51;;;;;;;4.83;2.30;;;;;;;19.30;79.11;98605.59;7227502;40;20569;31
2023/07/05 05:05:22;;;;;;;2.50;1.97;;;;;;;19.28;79.81;98613.16;7256368;40;20346;31
2023/07/05 05:10:57;;;;;;;3.10;2.00;;;;;;;19.23;80.52;98623.97;7243334;40;20256;31
2023/07/05 05:16:17;;;;;;;3.70;2.20;;;;;;;19.19;78.20;98665.66;7207864;40;20243;31
2023/07/05 05:21:52;;;;;;;4.43;2.80;;;;;;;18.95;76.74;98681.19;7209878;40;20284;31
2023/07/05 05:27:29;;;;;;;3.20;2.50;;;;;;;18.75;76.65;98702.47;7239175;40;20261;31
2023/07/05 05:32:50;;;;;;;3.70;2.30;;;;;;;18.68;76.66;98699.84;7196995;40;20254;31
2023/07/05 05:38:11;;;;;;;3.10;2.55;;;;;;;18.81;76.28;98701.56;7252089;40;20315;31
2023/07/05 05:43:50;;;;;;;3.00;2.50;;;;;;;18.53;74.66;98709.47;7260097;40;20356;31
2023/07/05 05:49:20;;;;;;;3.93;2.63;;;;;;;18.50;74.99;98705.31;7207282;40;20366;31
2023/07/05 05:54:56;;;;;;;4.45;3.40;;;;;;;18.57;72.79;98706.06;7267046;40;20253;31
2023/07/05 06:00:30;;;;;;;6.83;3.23;;;;;;;18.70;72.84;98713.25;7217026;40;20305;31
2023/07/05 06:06:06;;;;;;;4.73;3.20;;;;;;;18.78;71.49;98729.34;7200367;40;20261;31
2023/07/05 06:11:27;;;;;;;8.87;3.77;;;;;;;18.82;71.52;98745.00;7166148;40;20318;31
2023/07/05 06:17:06;;;;;;;5.50;3.60;;;;;;;18.87;71.18;98752.50;7191898;40;20274;31
2023/07/05 06:22:41;;;;;;;4.97;3.70;;;;;;;18.95;70.64;98770.50;7167249;40;20265;31
2023/07/05 06:28:02;;;;;;;4.60;3.70;;;;;;;19.13;69.62;98775.91;7258169;40;20261;31
2023/07/05 06:33:35;;;;;;;4.87;3.67;;;;;;;18.94;69.25;98782.47;7278174;40;20316;31
2023/07/05 06:39:07;;;;;;;5.63;3.77;;;;;;;19.00;68.23;98803.41;7259227;40;20260;31
2023/07/05 06:44:26;;;;;;;6.03;4.03;;;;;;;19.21;67.29;98790.09;7277854;40;20268;31
2023/07/05 06:50:05;;;;;;;6.00;4.40;;;;;;;19.20;66.62;98801.22;7230100;40;20253;31
2023/07/05 07:00:31;;;;;;;6.85;4.05;;;;;;;19.40;63.90;98809.12;7250705;40;20376;31
2023/07/05 07:11:10;;;;;;;6.10;4.00;;;;;;;19.59;63.46;98829.91;7327050;39;20299;31
2023/07/05 07:16:43;;;;;;;5.17;3.80;;;;;;;19.52;62.17;98843.69;7077982;40;20273;31
2023/07/05 07:22:05;;;;;;;5.85;4.20;;;;;;;19.27;62.23;98857.47;7187594;40;21413;31
2023/07/05 07:27:43;;;;;;;4.43;3.87;;;;;;;19.18;61.39;98866.19;7299786;39;20256;31
2023/07/05 07:33:05;;;;;;;6.37;3.93;;;;;;;19.47;60.97;98870.06;7245860;40;20256;31
2023/07/05 07:38:40;;;;;;;4.80;4.10;;;;;;;19.83;60.41;98889.09;7241730;40;20246;31
2023/07/05 07:44:19;;;;;;;5.37;3.33;;;;;;;19.77;59.06;98893.59;7226388;39;20233;31
2023/07/05 07:49:40;;;;;;;6.70;3.70;;;;;;;20.18;57.09;98900.94;7285573;39;20344;31
2023/07/05 08:00:21;;;;;;;6.03;3.93;;;;;;;20.37;54.94;98896.22;7297371;39;20272;31
2023/07/05 08:05:41;;;;;;;4.70;3.20;;;;;;;20.24;55.30;98910.94;7264675;40;20236;31
2023/07/05 08:11:18;;;;;;;7.85;3.85;;;;;;;20.44;56.32;98920.78;7277781;40;20249;31
2023/07/05 08:17:00;;;;;;;;;;;;;;;;;;;;;
2023/07/05 08:22:11;;;;;;;5.80;3.20;;;;;;;20.51;55.93;98937.91;7251773;40;20234;31
2023/07/05 08:27:46;;;;;;;3.50;3.00;;;;;;;20.35;54.52;98944.09;7278342;39;20241;31
2023/07/05 08:33:23;;;;;;;8.10;3.20;;;;;;;20.03;54.27;98951.72;7254422;39;20236;31
2023/07/05 08:38:59;;;;;;;4.27;2.63;;;;;;;19.85;52.26;98960.81;7237677;40;20374;31
2023/07/05 08:44:34;;;;;;;4.30;2.75;;;;;;;20.18;51.95;98954.84;7219786;40;21443;31
2023/07/05 08:50:12;;;;;;;3.30;2.60;;;;;;;20.50;50.17;98971.84;7153345;40;20247;31
2023/07/05 08:55:54;;;;;;;6.80;3.10;;;;;;;20.76;51.04;98951.38;7209077;40;20357;31
2023/07/05 09:01:29;;;;;;;5.50;2.80;;;;;;;20.97;50.53;98975.44;7248801;40;20367;31
2023/07/05 09:07:03;;;;;;;3.35;2.65;;;;;;;21.22;49.88;98973.31;7239239;40;20245;31
2023/07/05 09:12:38;;;;;;;3.30;2.60;;;;;;;21.54;49.25;98992.94;7202072;40;20369;31
2023/07/05 09:18:15;;;;;;;4.53;2.43;;;;;;;21.42;48.76;98995.66;7152952;40;20247;31
2023/07/05 09:23:49;;;;;;;3.28;2.53;;;;;;;21.50;47.32;99008.19;7150728;40;20273;31
2023/07/05 09:34:30;;;;;;;5.53;2.80;;;;;;;21.56;48.39;99009.97;7268742;39;20291;31
2023/07/05 09:40:19;;;;;;;4.20;2.75;;;;;;;21.75;47.03;99005.97;7221981;40;20272;31
2023/07/05 09:45:39;;;;;;;3.50;2.55;;;;;;;21.98;45.41;99032.56;7242805;40;20256;31
2023/07/05 09:51:17;;;;;;;4.70;2.65;;;;;;;21.97;44.45;99036.38;7261656;40;20252;31
2023/07/05 09:57:17;;;;;;;3.67;2.60;;;;;;;22.07;44.20;99022.84;7258680;40;20327;31
2023/07/05 10:02:49;;;;;;;2.60;2.20;;;;;;;21.99;45.06;99032.28;7255496;40;20252;31
2023/07/05 10:08:29;;;;;;;3.82;2.54;;;;;;;22.11;43.57;99046.00;7282720;40;20240;31
2023/07/05 10:14:16;;;;;;;7.15;2.85;;;;;;;22.24;42.67;99061.34;7276746;40;20321;31
2023/07/05 10:19:47;;;;;;;3.47;2.10;;;;;;;22.44;42.08;99047.97;7240983;40;20245;31
2023/07/05 10:25:28;;;;;;;5.40;2.50;;;;;;;22.25;41.47;99052.81;7206043;40;20374;31
2023/07/05 10:31:04;;;;;;;4.05;2.28;;;;;;;22.39;41.50;99045.97;7159259;40;20840;31
2023/07/05 10:36:37;;;;;;;3.03;2.33;;;;;;;22.83;41.56;99057.22;7179150;40;20905;31
2023/07/05 10:42:25;;;;;;;7.03;2.35;;;;;;;23.17;41.53;99050.59;7189112;40;20369;31
2023/07/05 10:48:04;;;;;;;2.65;2.05;;;;;;;23.30;41.94;99052.19;7193573;40;20325;31
2023/07/05 10:53:39;;;;;;;4.50;2.30;;;;;;;23.00;40.83;99052.53;7187692;40;20782;31
2023/07/05 10:59:14;;;;;;;2.60;1.80;;;;;;;22.97;39.96;99068.72;7166762;40;20705;31
2023/07/05 11:04:53;;;;;;;3.03;2.47;;;;;;;23.00;40.34;99052.53;7230258;40;20764;31
2023/07/05 11:10:31;;;;;;;3.00;2.05;;;;;;;23.53;39.47;99042.91;7227384;40;20384;31
2023/07/05 11:21:08;;;;;;;4.03;2.13;;;;;;;23.97;38.61;99049.25;7175624;40;20275;31
2023/07/05 11:32:12;;;;;;;4.72;2.00;;;;;;;23.78;38.34;99066.09;7270706;40;20264;31
2023/07/05 11:42:55;;;;;;;6.22;2.30;;;;;;;23.91;37.70;99066.81;7352769;39;20275;31
2023/07/05 11:48:54;;;;;;;3.85;2.00;;;;;;;23.97;38.57;99057.53;7276420;40;20851;31
2023/07/05 11:54:29;;;;;;;3.37;2.10;;;;;;;24.05;36.38;99057.06;7209862;40;20732;31
2023/07/05 12:00:06;;;;;;;3.90;2.33;;;;;;;23.99;37.91;99061.69;7195755;40;20813;31
2023/07/05 12:05:37;;;;;;;5.25;2.00;;;;;;;23.95;36.68;99051.47;7187987;40;20923;31
2023/07/05 12:11:12;;;;;;;4.68;2.28;;;;;;;23.91;37.09;99059.41;7229073;40;20733;31
2023/07/05 12:16:48;;;;;;;2.30;1.85;;;;;;;24.29;37.10;99061.25;7208464;40;20773;31
2023/07/05 12:22:25;;;;;;;3.83;1.90;;;;;;;24.12;37.52;99046.69;7235731;40;22000;31
2023/07/05 12:33:05;;;;;;;3.30;2.03;;;;;;;24.10;37.87;99068.97;7275691;40;20261;31
2023/07/05 12:38:51;;;;;;;5.00;2.14;;;;;;;24.15;35.26;99054.44;7250770;40;20276;31
2023/07/05 12:49:30;;;;;;;2.80;1.77;;;;;;;23.75;37.66;99074.88;7257355;40;20561;31
2023/07/05 13:00:19;;;;;;;;;;;;;;;;;;;;;
2023/07/05 13:05:42;;;;;;;3.95;1.90;;;;;;;24.45;36.78;99059.47;7192496;40;20262;31
2023/07/05 13:16:31;;;;;;;4.22;1.85;;;;;;;24.24;36.61;99052.91;7235752;40;20277;31
2023/07/05 13:22:07;;;;;;;4.75;2.00;;;;;;;24.56;36.61;99075.03;7275994;40;20592;31
2023/07/05 13:27:42;;;;;;;3.45;2.08;;;;;;;24.48;35.60;99058.97;7294576;39;20248;31
2023/07/05 13:33:04;;;;;;;4.28;2.22;;;;;;;24.53;36.72;99065.34;7258083;40;20683;31
2023/07/05 13:38:40;;;;;;;2.90;2.00;;;;;;;24.55;37.09;99067.84;7269573;40;20242;31
2023/07/05 13:44:13;;;;;;;3.80;2.00;;;;;;;24.51;35.13;99058.44;7190189;40;20447;31
2023/07/05 13:49:49;;;;;;;6.25;2.25;;;;;;;24.61;35.68;99064.06;7210352;40;20846;31
2023/07/05 13:55:19;;;;;;;3.08;2.10;;;;;;;24.58;36.44;99072.84;6996752;40;21433;31
2023/07/05 14:00:56;;;;;;;4.00;2.20;;;;;;;24.52;36.39;99077.50;7215866;40;20302;31
2023/07/05 14:06:31;;;;;;;4.15;2.00;;;;;;;24.42;36.39;99071.03;7196897;40;20267;31
2023/07/05 14:12:08;;;;;;;2.95;2.00;;;;;;;24.58;35.88;99064.56;7179322;40;20741;31
2023/07/05 14:17:45;;;;;;;3.65;2.12;;;;;;;24.44;36.89;99071.63;7160644;40;20297;31
2023/07/05 14:23:21;;;;;;;5.28;2.05;;;;;;;24.05;34.90;99066.16;7150188;40;20890;31
2023/07/05 14:28:57;;;;;;;2.70;1.90;;;;;;;24.13;37.54;99067.66;7257522;40;20387;31
2023/07/05 14:34:17;;;;;;;5.78;2.26;;;;;;;24.32;36.21;99073.66;7231398;40;20718;31
2023/07/05 14:39:53;;;;;;;2.27;1.63;;;;;;;24.31;35.82;99064.56;7257712;40;20446;31
2023/07/05 14:45:30;;;;;;;2.87;1.85;;;;;;;24.66;36.19;99050.34;7240361;40;20923;31
2023/07/05 14:51:05;;;;;;;4.15;1.98;;;;;;;24.84;35.23;99065.63;7186356;40;20647;31
2023/07/05 14:56:26;;;;;;;2.40;1.70;;;;;;;24.37;35.63;99059.94;7168336;40;20761;31
2023/07/05 15:02:01;;;;;;;4.10;2.03;;;;;;;24.42;35.21;99049.81;7197405;40;20246;31
2023/07/05 15:07:36;;;;;;;3.90;2.12;;;;;;;24.47;36.51;99051.78;7204104;40;20814;31
2023/07/05 15:12:56;;;;;;;7.80;2.10;;;;;;;24.44;35.49;99064.16;7257922;40;20492;31
2023/07/05 15:18:29;;;;;;;3.50;1.90;;;;;;;24.24;35.19;99069.44;7274284;39;20252;31
2023/07/05 15:24:03;;;;;;;4.12;1.94;;;;;;;24.28;36.12;99065.09;7321413;39;20724;31
2023/07/05 15:29:43;;;;;;;3.23;1.60;;;;;;;24.08;35.53;99062.91;7260376;40;20278;31
2023/07/05 15:35:16;;;;;;;3.84;2.18;;;;;;;24.35;35.55;99062.16;7247651;40;20553;31
2023/07/05 15:40:36;;;;;;;3.03;1.90;;;;;;;24.64;34.73;99061.63;7218716;40;20272;31
2023/07/05 15:45:57;;;;;;;3.45;1.83;;;;;;;24.49;35.56;99060.62;7211121;40;20276;31
2023/07/05 15:51:32;;;;;;;4.65;2.10;;;;;;;24.05;35.06;99057.91;7223808;40;20277;31
2023/07/05 16:01:59;;;;;;;4.28;2.30;;;;;;;24.28;35.60;99058.75;7282492;40;20268;31
2023/07/05 16:12:38;;;;;;;4.10;2.30;;;;;;;24.05;34.81;99057.91;7292311;39;20360;31
2023/07/05 16:18:13;;;;;;;4.10;2.10;;;;;;;24.17;35.85;99069.66;7317401;39;20263;31
2023/07/05 16:23:48;;;;;;;4.00;1.80;;;;;;;24.40;35.22;99053.91;7295910;40;20449;31
2023/07/05 16:29:24;;;;;;;2.00;1.70;;;;;;;24.50;36.64;99057.63;7233782;40;20243;31
2023/07/05 16:34:59;;;;;;;3.45;2.00;;;;;;;24.35;36.22;99068.50;7252351;40;20253;31
2023/07/05 16:40:34;;;;;;;4.32;2.50;;;;;;;23.89;36.14;99078.09;7246579;40;20269;31
2023/07/05 16:46:11;;;;;;;3.50;2.00;;;;;;;23.79;35.93;99066.94;7262838;40;20244;31
2023/07/05 16:51:31;;;;;;;2.70;2.10;;;;;;;23.62;36.11;99075.25;7264987;40;20260;31
2023/07/05 16:57:04;;;;;;;3.42;2.17;;;;;;;23.53;36.53;99067.66;7255536;40;20260;31
2023/07/05 17:02:37;;;;;;;3.17;2.15;;;;;;;23.44;35.96;99078.28;7234852;40;21110;31
2023/07/05 17:08:11;;;;;;;4.85;2.22;;;;;;;23.49;36.95;99055.50;7218013;40;20269;31
2023/07/05 17:13:46;;;;;;;3.40;2.30;;;;;;;23.49;37.21;99074.78;7193235;40;20325;31
2023/07/05 17:19:22;;;;;;;3.74;1.96;;;;;;;23.52;36.84;99079.78;7217554;40;20261;31
2023/07/05 17:24:54;;;;;;;3.40;2.00;;;;;;;23.45;37.04;99073.63;7184408;40;20270;31
2023/07/05 17:35:29;;;;;;;2.80;2.00;;;;;;;23.44;36.84;99081.03;7252539;39;21200;31
2023/07/05 17:46:09;;;;;;;4.25;2.15;;;;;;;23.36;37.42;99090.53;7263296;39;21244;31
2023/07/05 17:51:45;;;;;;;3.85;2.10;;;;;;;23.36;37.72;99089.69;7295150;39;20779;31
2023/07/05 17:57:06;;;;;;;4.10;2.00;;;;;;;23.27;37.64;99093.94;7214367;40;20258;31
2023/07/05 18:02:38;;;;;;;5.55;2.37;;;;;;;23.16;37.92;99090.22;7256582;40;20779;31
2023/07/05 18:08:14;;;;;;;2.63;2.20;;;;;;;23.07;39.18;99101.87;7175112;40;20769;31
2023/07/05 18:18:50;;;;;;;3.40;2.10;;;;;;;23.10;38.65;99104.13;7183598;40;21161;31
2023/07/05 18:24:26;;;;;;;3.17;2.00;;;;;;;23.01;38.28;99100.13;7162464;40;20275;31
2023/07/05 18:30:03;;;;;;;3.95;1.90;;;;;;;22.82;38.73;99105.84;7158397;40;20324;31
2023/07/05 18:35:17;;;;;;;5.68;2.10;;;;;;;22.81;39.38;99111.63;7200890;40;20252;31
2023/07/05 18:45:55;;;;;;;3.60;2.00;;;;;;;22.77;39.63;99111.25;7240849;40;21165;31
2023/07/05 18:51:27;;;;;;;4.03;2.10;;;;;;;22.75;39.37;99116.19;7217484;40;20280;31
2023/07/05 19:02:08;;;;;;;3.45;1.62;;;;;;;22.56;40.59;99116.59;7272427;39;20394;31
2023/07/05 19:12:30;;;;;;;4.90;2.28;;;;;;;22.47;40.91;99119.72;7277125;39;21553;31
2023/07/05 19:23:06;;;;;;;6.42;2.38;;;;;;;22.23;41.71;99123.66;7307760;39;21763;31
2023/07/05 19:28:37;;;;;;;3.12;2.40;;;;;;;21.93;42.84;99143.06;7296185;39;20357;31
2023/07/05 19:34:06;;;;;;;4.55;1.92;;;;;;;21.70;42.63;99144.97;7262352;40;20241;31
2023/07/05 19:39:42;;;;;;;4.00;2.10;;;;;;;21.57;43.57;99163.34;7255428;40;20326;31
2023/07/05 19:45:00;;;;;;;3.17;2.00;;;;;;;21.47;44.03;99163.09;7213208;40;20242;31
2023/07/05 19:50:37;;;;;;;4.47;2.53;;;;;;;21.23;45.13;99171.53;7229654;40;20254;31
2023/07/05 19:56:07;;;;;;;3.07;2.10;;;;;;;21.21;45.29;99169.03;7203781;40;20273;31
2023/07/05 20:01:36;;;;;;;4.18;2.40;;;;;;;21.14;44.69;99173.78;7217915;40;20381;31
2023/07/05 20:12:13;;;;;;;5.20;1.80;;;;;;;20.94;45.19;99178.69;7299040;39;20285;31
2023/07/05 20:17:45;;;;;;;3.83;2.10;;;;;;;20.79;46.51;99176.41;7245481;40;20260;31
2023/07/05 20:23:06;;;;;;;4.85;2.10;;;;;;;20.57;46.29;99162.37;7236036;40;20312;31
2023/07/05 20:28:40;;;;;;;5.00;2.08;;;;;;;20.44;46.79;99168.03;7274510;40;20241;31
2023/07/05 20:34:14;;;;;;;4.23;2.40;;;;;;;20.40;46.35;99172.31;7196064;40;21061;31
2023/07/05 20:44:51;;;;;;;3.20;1.90;;;;;;;20.21;46.91;99173.34;7201210;40;20273;31
2023/07/05 20:55:31;;;;;;;3.90;2.30;;;;;;;20.10;47.02;99176.84;7204646;40;20269;31
2023/07/05 21:01:05;;;;;;;5.17;2.57;;;;;;;20.16;47.85;99178.69;7065962;40;21368;31
2023/07/05 21:06:25;;;;;;;2.90;2.30;;;;;;;20.23;47.76;99191.22;7258816;39;20367;31
2023/07/05 21:11:54;;;;;;;2.97;2.10;;;;;;;20.18;48.57;99184.78;7295080;40;20382;31
2023/07/05 21:17:30;;;;;;;3.30;2.20;;;;;;;20.17;47.83;99189.41;7215662;40;20289;31
2023/07/05 21:22:50;;;;;;;3.17;2.07;;;;;;;20.18;48.49;99195.72;7188143;40;20269;31
2023/07/05 21:28:22;;;;;;;2.10;1.90;;;;;;;20.13;47.73;99206.50;7210862;40;20359;31
2023/07/05 21:33:58;;;;;;;3.70;2.05;;;;;;;20.04;48.33;99216.09;7165527;40;20358;31
2023/07/05 21:39:33;;;;;;;4.93;2.23;;;;;;;19.92;49.68;99220.62;7237879;40;20305;31
2023/07/05 21:45:08;;;;;;;2.57;2.10;;;;;;;19.84;50.79;99220.91;7236687;40;20366;31
2023/07/05 21:50:44;;;;;;;5.37;2.27;;;;;;;19.73;50.41;99222.50;7206678;40;20311;31
2023/07/05 21:56:19;;;;;;;2.62;2.08;;;;;;;19.69;49.61;99227.59;7202331;40;20780;31
2023/07/05 22:01:39;;;;;;;3.03;2.00;;;;;;;19.64;50.63;99223.84;7229617;40;20297;31
2023/07/05 22:12:15;;;;;;;2.80;2.05;;;;;;;19.54;50.42;99232.56;7273296;39;20580;31
2023/07/05 22:22:55;;;;;;;3.27;2.00;;;;;;;19.55;50.11;99236.13;7273169;40;20268;31
2023/07/05 22:28:31;;;;;;;5.30;2.70;;;;;;;19.53;51.49;99240.97;7215826;40;20246;31
2023/07/05 22:34:06;;;;;;;3.60;2.27;;;;;;;19.36;51.73;99243.38;7223562;40;20300;31
2023/07/05 22:44:46;;;;;;;4.65;2.40;;;;;;;19.26;51.61;99251.25;7269028;40;20287;31
2023/07/05 22:55:10;;;;;;;4.00;2.10;;;;;;;18.95;51.36;99267.66;7286654;39;20288;31
2023/07/05 23:00:48;;;;;;;2.50;1.80;;;;;;;18.74;52.20;99263.31;7315110;39;21889;31
2023/07/05 23:06:21;;;;;;;3.33;2.20;;;;;;;18.57;53.20;99265.72;7269488;39;20256;31
2023/07/05 23:11:56;;;;;;;3.47;2.30;;;;;;;18.25;54.13;99259.31;7236704;40;20265;31
2023/07/05 23:17:34;;;;;;;5.07;2.33;;;;;;;17.99;54.97;99272.97;7214255;40;20265;31
2023/07/05 23:23:09;;;;;;;2.67;2.20;;;;;;;17.99;54.96;99267.53;7171579;40;20258;31
2023/07/05 23:33:48;;;;;;;3.20;2.10;;;;;;;17.63;56.01;99268.00;7227433;40;20439;31
2023/07/05 23:39:23;;;;;;;3.00;2.00;;;;;;;17.73;54.90;99267.56;7233010;40;20818;31
2023/07/05 23:44:59;;;;;;;3.10;2.10;;;;;;;17.89;54.73;99267.13;7225573;40;20339;31
2023/07/05 23:50:35;;;;;;;7.60;2.13;;;;;;;17.95;54.32;99264.38;7212742;40;20768;31
2023/07/05 23:56:10;;;;;;;3.33;2.28;;;;;;;17.98;54.04;99266.72;7192093;40;20644;31
